createdAt,value
2019-05-22T00:01:15.123Z,14.47
2019-05-22T00:03:47.112Z,11.18
2019-05-22T00:06:18.191Z,13.53
2019-05-22T00:09:04.436Z,13.98
2019-05-22T00:11:34.619Z,11.28
2019-05-22T00:14:05.706Z,18.37
2019-05-22T00:16:37.478Z,16.27
2019-05-22T00:19:07.362Z,18.15
2019-05-22T00:21:38.458Z,11.45
2019-05-22T00:24:08.380Z,11.53
2019-05-22T00:26:40.459Z,8.53
2019-05-22T00:29:14.101Z,8.58
2019-05-22T00:31:45.530Z,10.98
2019-05-22T00:34:17.335Z,12.75
2019-05-22T00:36:47.351Z,14.05
2019-05-22T00:39:22.144Z,18.70
2019-05-22T00:41:53.342Z,20.35
2019-05-22T00:44:23.220Z,12.63
2019-05-22T00:46:54.319Z,9.25
2019-05-22T00:49:24.805Z,10.80
2019-05-22T00:52:22.778Z,14.63
2019-05-22T00:55:07.303Z,14.90
2019-05-22T00:57:50.573Z,15.25
2019-05-22T01:00:22.005Z,18.67
2019-05-22T01:02:52.319Z,12.00
2019-05-22T01:05:22.503Z,12.37
2019-05-22T01:07:52.378Z,10.08
2019-05-22T01:10:23.088Z,13.98
2019-05-22T01:12:56.173Z,11.90
2019-05-22T01:15:26.826Z,14.13
2019-05-22T01:18:02.155Z,13.35
2019-05-22T01:20:33.251Z,12.93
2019-05-22T01:23:02.853Z,7.40
2019-05-22T01:25:34.597Z,11.18
2019-05-22T01:28:06.854Z,12.80
2019-05-22T01:30:44.443Z,12.88
2019-05-22T01:33:32.015Z,11.40
2019-05-22T01:36:03.200Z,10.95
2019-05-22T01:38:34.644Z,9.43
2019-05-22T01:41:20.518Z,8.30
2019-05-22T01:43:54.253Z,17.90
2019-05-22T01:46:25.518Z,11.22
2019-05-22T01:48:59.742Z,12.45
2019-05-22T01:51:29.226Z,12.30
2019-05-22T01:54:00.054Z,12.95
2019-05-22T01:56:30.592Z,21.20
2019-05-22T01:59:00.302Z,9.75
2019-05-22T02:01:30.633Z,7.80
2019-05-22T02:04:02.056Z,9.93
2019-05-22T02:06:32.482Z,11.65
2019-05-22T02:09:21.618Z,13.10
2019-05-22T02:11:57.749Z,8.33
2019-05-22T02:14:27.863Z,7.58
2019-05-22T02:16:58.574Z,11.00
2019-05-22T02:19:29.458Z,12.50
2019-05-22T02:21:59.717Z,9.43
2019-05-22T02:24:30.955Z,11.35
2019-05-22T02:27:02.091Z,10.88
2019-05-22T02:29:32.832Z,7.40
2019-05-22T02:32:06.525Z,9.20
2019-05-22T02:34:37.143Z,8.78
2019-05-22T02:37:07.448Z,8.63
2019-05-22T02:39:38.774Z,17.77
2019-05-22T02:42:11.906Z,7.30
2019-05-22T02:44:41.681Z,11.68
2019-05-22T02:47:19.888Z,9.48
2019-05-22T02:49:48.807Z,11.38
2019-05-22T02:52:19.869Z,11.70
2019-05-22T02:54:49.899Z,8.58
2019-05-22T02:57:20.745Z,9.13
2019-05-22T02:59:50.701Z,12.10
2019-05-22T03:02:32.671Z,6.67
2019-05-22T03:05:09.499Z,9.95
2019-05-22T03:07:41.595Z,13.30
2019-05-22T03:10:13.145Z,10.78
2019-05-22T03:12:45.515Z,15.10
2019-05-22T03:15:18.088Z,11.63
2019-05-22T03:17:52.102Z,8.60
2019-05-22T03:20:23.421Z,7.53
2019-05-22T03:23:14.631Z,16.62
2019-05-22T03:25:44.655Z,15.38
2019-05-22T03:28:15.565Z,12.18
2019-05-22T03:30:46.731Z,17.42
2019-05-22T03:33:17.672Z,18.67
2019-05-22T03:35:51.239Z,8.65
2019-05-22T03:40:53.293Z,10.28
2019-05-22T03:43:35.258Z,10.78
2019-05-22T03:46:23.518Z,10.90
2019-05-22T03:48:54.316Z,12.45
2019-05-22T03:51:23.923Z,11.30
2019-05-22T03:53:54.177Z,10.20
2019-05-22T03:56:24.109Z,11.22
2019-05-22T03:58:53.927Z,13.65
2019-05-22T04:01:25.492Z,10.75
2019-05-22T04:03:55.590Z,8.68
2019-05-22T04:06:25.613Z,13.65
2019-05-22T04:08:56.513Z,12.45
2019-05-22T04:11:35.204Z,11.03
2019-05-22T04:14:05.425Z,11.63
2019-05-22T04:16:35.620Z,12.82
2019-05-22T04:19:05.138Z,12.10
2019-05-22T04:21:38.244Z,10.65
2019-05-22T04:24:17.140Z,7.75
2019-05-22T04:26:48.141Z,8.40
2019-05-22T04:29:18.426Z,14.28
2019-05-22T04:31:53.697Z,12.37
2019-05-22T04:34:23.158Z,18.50
2019-05-22T04:36:54.099Z,15.88
2019-05-22T04:39:26.825Z,13.78
2019-05-22T04:41:58.895Z,12.05
2019-05-22T04:44:28.424Z,10.85
2019-05-22T04:46:58.237Z,6.60
2019-05-22T04:49:27.807Z,12.98
2019-05-22T04:51:57.899Z,11.75
2019-05-22T04:54:27.463Z,9.93
2019-05-22T04:56:57.815Z,7.58
2019-05-22T04:59:27.335Z,12.63
2019-05-22T05:01:58.343Z,13.20
2019-05-22T05:04:28.307Z,9.25
2019-05-22T05:06:58.946Z,12.63
2019-05-22T05:09:29.843Z,12.37
2019-05-22T05:12:00.111Z,12.23
2019-05-22T05:14:29.559Z,10.95
2019-05-22T05:17:18.713Z,15.60
2019-05-22T05:19:48.162Z,10.65
2019-05-22T05:22:39.895Z,14.63
2019-05-22T05:25:10.194Z,9.93
2019-05-22T05:27:39.927Z,15.03
2019-05-22T05:30:12.505Z,13.20
2019-05-22T05:32:43.228Z,10.20
2019-05-22T05:35:16.976Z,21.90
2019-05-22T05:37:47.731Z,13.95
2019-05-22T05:40:33.715Z,10.15
2019-05-22T05:43:04.792Z,13.32
2019-05-22T05:45:46.603Z,11.22
2019-05-22T05:48:19.431Z,10.48
2019-05-22T05:53:26.960Z,14.30
2019-05-22T05:56:08.710Z,11.75
2019-05-22T05:58:38.417Z,12.05
2019-05-22T06:01:32.369Z,10.10
2019-05-22T06:04:03.438Z,18.48
2019-05-22T06:09:17.694Z,13.38
2019-05-22T06:11:49.173Z,15.45
2019-05-22T06:14:30.450Z,14.90
2019-05-22T06:17:39.288Z,11.20
2019-05-22T06:20:11.783Z,13.53
2019-05-22T06:22:43.217Z,13.30
2019-05-22T06:25:14.088Z,13.85
2019-05-22T06:27:47.390Z,14.20
2019-05-22T06:30:21.589Z,18.17
2019-05-22T06:33:10.398Z,16.48
2019-05-22T06:35:41.011Z,13.78
2019-05-22T06:38:38.438Z,20.17
2019-05-22T06:41:11.159Z,15.72
2019-05-22T06:43:43.805Z,15.25
2019-05-22T06:46:15.731Z,14.98
2019-05-22T06:48:45.634Z,19.70
2019-05-22T06:51:19.365Z,11.95
2019-05-22T06:53:46.511Z,13.90
2019-05-22T06:56:16.022Z,20.68
2019-05-22T06:58:49.376Z,13.38
2019-05-22T07:01:19.324Z,13.40
2019-05-22T07:03:49.979Z,14.65
2019-05-22T07:06:19.818Z,21.68
2019-05-22T07:08:50.036Z,12.85
2019-05-22T07:11:19.544Z,11.15
2019-05-22T07:13:49.946Z,12.68
2019-05-22T07:16:19.522Z,19.02
2019-05-22T07:18:49.283Z,18.90
2019-05-22T07:21:33.134Z,23.35
2019-05-22T07:23:50.095Z,39.18
2019-05-22T07:26:19.983Z,18.62
2019-05-22T07:28:49.671Z,13.30
2019-05-22T07:31:20.134Z,16.87
2019-05-22T07:34:02.043Z,17.48
2019-05-22T07:36:33.056Z,13.83
2019-05-22T07:39:04.441Z,15.65
2019-05-22T07:41:34.652Z,17.37
2019-05-22T07:44:23.439Z,13.58
2019-05-22T07:46:53.385Z,21.95
2019-05-22T07:49:22.924Z,14.18
2019-05-22T07:52:00.609Z,16.23
2019-05-22T07:54:23.812Z,20.02
2019-05-22T07:56:53.715Z,24.23
2019-05-22T07:59:23.732Z,13.35
2019-05-22T08:01:53.200Z,20.05
2019-05-22T08:04:24.566Z,15.03
2019-05-22T08:06:55.110Z,20.37
2019-05-22T08:09:26.072Z,17.42
2019-05-22T08:11:57.006Z,20.27
2019-05-22T08:14:27.801Z,20.25
2019-05-22T08:16:57.511Z,16.65
2019-05-22T08:19:27.642Z,13.83
2019-05-22T08:22:07.449Z,15.75
2019-05-22T08:24:31.282Z,16.05
2019-05-22T08:27:01.108Z,18.37
2019-05-22T08:29:31.939Z,19.87
2019-05-22T08:32:02.289Z,20.37
2019-05-22T08:34:32.067Z,12.78
2019-05-22T08:37:03.659Z,16.07
2019-05-22T08:39:33.252Z,10.30
2019-05-22T08:42:05.371Z,13.03
2019-05-22T08:44:36.899Z,10.98
2019-05-22T08:47:08.278Z,20.48
2019-05-22T08:49:39.105Z,14.75
2019-05-22T08:52:22.471Z,13.48
2019-05-22T08:54:41.578Z,15.97
2019-05-22T08:57:12.013Z,15.25
2019-05-22T08:59:42.639Z,10.13
2019-05-22T09:02:12.271Z,11.30
2019-05-22T09:04:42.109Z,13.68
2019-05-22T09:07:12.163Z,11.55
2019-05-22T09:09:41.709Z,14.38
2019-05-22T09:12:11.345Z,13.20
2019-05-22T09:14:41.287Z,12.25
2019-05-22T09:17:11.545Z,17.02
2019-05-22T09:19:41.349Z,12.47
2019-05-22T09:22:11.605Z,12.85
2019-05-22T09:24:42.865Z,14.78
2019-05-22T09:27:12.482Z,17.32
2019-05-22T09:29:42.024Z,15.03
2019-05-22T09:32:11.536Z,12.40
2019-05-22T09:34:41.430Z,12.75
2019-05-22T09:37:10.963Z,8.20
2019-05-22T09:39:40.504Z,12.68
2019-05-22T09:42:10.114Z,16.55
2019-05-22T09:44:40.637Z,13.05
2019-05-22T09:47:10.336Z,13.20
2019-05-22T09:49:42.863Z,10.80
2019-05-22T09:52:13.303Z,10.90
2019-05-22T09:54:44.865Z,15.78
2019-05-22T09:57:14.682Z,9.85
2019-05-22T09:59:44.191Z,14.35
2019-05-22T10:02:15.506Z,14.85
2019-05-22T10:04:45.099Z,25.62
2019-05-22T10:07:14.638Z,13.60
2019-05-22T10:09:44.381Z,23.15
2019-05-22T10:12:13.939Z,15.53
2019-05-22T10:14:43.476Z,23.05
2019-05-22T10:17:13.261Z,15.80
2019-05-22T10:19:43.174Z,19.02
2019-05-22T10:22:13.123Z,18.17
2019-05-22T10:24:43.571Z,15.50
2019-05-22T10:27:17.314Z,17.87
2019-05-22T10:32:17.031Z,18.57
2019-05-22T10:34:46.684Z,26.33
2019-05-22T10:37:16.441Z,19.05
2019-05-22T10:39:46.860Z,25.80
2019-05-22T10:42:17.023Z,23.80
2019-05-22T10:44:46.606Z,17.07
2019-05-22T10:47:18.589Z,19.85
2019-05-22T10:49:47.591Z,19.15
2019-05-22T10:52:19.098Z,25.37
2019-05-22T10:54:48.713Z,22.02
2019-05-22T10:57:18.836Z,17.73
2019-05-22T10:59:48.411Z,19.60
2019-05-22T11:02:18.311Z,19.00
2019-05-22T11:04:56.723Z,22.17
2019-05-22T11:07:28.707Z,29.23
2019-05-22T11:09:58.210Z,22.70
2019-05-22T11:12:27.728Z,26.07
2019-05-22T11:14:57.327Z,20.80
2019-05-22T11:17:26.850Z,27.27
2019-05-22T11:19:56.356Z,28.52
2019-05-22T11:22:27.037Z,18.70
2019-05-22T11:24:56.658Z,21.42
2019-05-22T11:27:26.103Z,17.87
2019-05-22T11:29:55.640Z,15.75
2019-05-22T11:32:25.559Z,22.05
2019-05-22T11:34:55.448Z,19.65
2019-05-22T11:37:24.956Z,18.02
2019-05-22T11:39:54.441Z,17.67
2019-05-22T11:42:24.498Z,20.62
2019-05-22T11:44:54.707Z,20.60
2019-05-22T11:47:24.421Z,14.30
2019-05-22T11:49:54.070Z,21.17
2019-05-22T11:52:23.713Z,19.92
2019-05-22T11:54:53.623Z,23.30
2019-05-22T11:57:23.424Z,19.10
2019-05-22T11:59:52.975Z,16.93
2019-05-22T12:02:24.028Z,20.02
2019-05-22T12:04:53.804Z,23.02
2019-05-22T12:07:23.410Z,22.55
2019-05-22T12:09:53.391Z,16.90
2019-05-22T12:12:22.877Z,19.05
2019-05-22T12:14:52.502Z,22.17
2019-05-22T12:17:37.669Z,14.83
2019-05-22T12:19:54.167Z,13.72
2019-05-22T12:22:25.002Z,15.10
2019-05-22T12:24:54.468Z,8.20
2019-05-22T12:27:24.856Z,9.35
2019-05-22T12:29:54.330Z,12.63
2019-05-22T12:32:24.724Z,11.12
2019-05-22T12:34:54.529Z,11.90
2019-05-22T12:37:24.924Z,11.25
2019-05-22T12:39:54.680Z,12.40
2019-05-22T12:42:36.271Z,7.97
2019-05-22T12:45:08.702Z,13.05
2019-05-22T12:47:38.492Z,14.43
2019-05-22T12:50:08.184Z,8.10
2019-05-22T12:52:38.860Z,13.08
2019-05-22T12:55:08.891Z,7.85
2019-05-22T12:57:38.345Z,6.53
2019-05-22T13:00:10.311Z,5.78
2019-05-22T13:02:42.711Z,5.20
2019-05-22T13:05:14.481Z,12.33
2019-05-22T13:07:44.278Z,5.70
2019-05-22T13:10:15.180Z,7.87
2019-05-22T13:12:44.978Z,15.25
2019-05-22T13:15:14.615Z,13.38
2019-05-22T13:17:44.889Z,16.10
2019-05-22T13:20:17.989Z,10.32
2019-05-22T13:22:49.583Z,7.50
2019-05-22T13:25:20.808Z,7.90
2019-05-22T13:27:52.531Z,5.25
2019-05-22T13:30:28.175Z,4.12
2019-05-22T13:32:56.990Z,1.45
2019-05-22T13:35:26.790Z,1.25
2019-05-22T13:37:58.066Z,2.05
2019-05-22T13:40:28.970Z,1.20
2019-05-22T13:42:59.326Z,0.33
2019-05-22T13:45:30.375Z,2.15
2019-05-22T13:47:59.947Z,7.72
2019-05-22T13:50:30.116Z,3.33
2019-05-22T13:53:03.207Z,2.20
2019-05-22T13:55:33.600Z,4.28
2019-05-22T13:58:05.867Z,2.58
2019-05-22T14:00:36.233Z,5.35
2019-05-22T14:03:06.019Z,7.80
2019-05-22T14:05:36.684Z,10.00
2019-05-22T14:08:08.141Z,17.25
2019-05-22T14:10:44.077Z,11.10
2019-05-22T14:13:16.142Z,14.25
2019-05-22T14:15:54.515Z,7.00
2019-05-22T14:18:17.913Z,8.83
2019-05-22T14:20:49.965Z,9.55
2019-05-22T14:23:26.785Z,5.17
2019-05-22T14:25:56.505Z,10.05
2019-05-22T14:28:28.751Z,8.33
2019-05-22T14:30:58.710Z,7.67
2019-05-22T14:33:29.953Z,6.08
2019-05-22T14:36:00.948Z,4.50
2019-05-22T14:38:30.392Z,4.33
2019-05-22T14:41:01.869Z,8.20
2019-05-22T14:43:32.282Z,10.25
2019-05-22T14:46:02.387Z,3.42
2019-05-22T14:48:31.986Z,5.08
2019-05-22T14:51:01.705Z,3.42
2019-05-22T14:53:31.899Z,1.98
2019-05-22T14:56:01.994Z,4.42
2019-05-22T14:58:31.587Z,2.67
2019-05-22T15:01:01.388Z,4.35
2019-05-22T15:03:33.329Z,1.47
2019-05-22T15:06:03.012Z,3.62
2019-05-22T15:08:32.543Z,3.08
2019-05-22T15:11:02.451Z,3.52
2019-05-22T15:13:32.490Z,2.80
2019-05-22T15:16:02.041Z,3.75
2019-05-22T15:18:32.115Z,4.30
2019-05-22T15:21:03.747Z,0.40
2019-05-22T15:23:33.996Z,0.78
2019-05-22T15:26:03.801Z,0.98
2019-05-22T15:28:33.420Z,3.33
2019-05-22T15:31:03.114Z,2.20
2019-05-22T15:33:34.882Z,1.98
2019-05-22T15:36:06.971Z,2.55
2019-05-22T15:38:40.746Z,1.12
2019-05-22T15:41:11.299Z,1.57
2019-05-22T15:43:43.696Z,3.33
2019-05-22T15:46:15.455Z,1.72
2019-05-22T15:48:47.626Z,4.53
2019-05-22T15:51:21.209Z,2.90
2019-05-22T15:53:52.348Z,1.62
2019-05-22T15:56:23.133Z,1.70
2019-05-22T15:58:54.924Z,1.35
2019-05-22T16:01:25.542Z,1.45
2019-05-22T16:03:56.545Z,0.82
2019-05-22T16:06:28.250Z,2.77
2019-05-22T16:08:58.563Z,10.82
2019-05-22T16:11:29.874Z,3.45
2019-05-22T16:13:59.891Z,1.25
2019-05-22T16:16:30.172Z,5.08
2019-05-22T16:19:03.254Z,1.20
2019-05-22T16:21:34.923Z,1.67
2019-05-22T16:24:06.919Z,3.10
2019-05-22T16:26:39.048Z,2.05
2019-05-22T16:29:08.675Z,2.08
2019-05-22T16:31:39.622Z,1.82
2019-05-22T16:34:10.317Z,1.87
2019-05-22T16:36:40.874Z,2.98
2019-05-22T16:39:15.489Z,3.83
2019-05-22T16:41:46.562Z,9.88
2019-05-22T16:44:17.190Z,8.18
2019-05-22T16:46:48.654Z,3.70
2019-05-22T16:49:18.279Z,2.95
2019-05-22T16:51:51.422Z,5.25
2019-05-22T16:54:21.455Z,8.63
2019-05-22T16:56:51.411Z,5.60
2019-05-22T16:59:22.452Z,4.25
2019-05-22T17:01:59.310Z,8.00
2019-05-22T17:04:24.284Z,5.80
2019-05-22T17:06:54.186Z,7.97
2019-05-22T17:09:23.814Z,4.28
2019-05-22T17:11:53.536Z,6.33
2019-05-22T17:14:25.074Z,4.12
2019-05-22T17:17:02.492Z,2.95
2019-05-22T17:19:32.008Z,13.50
2019-05-22T17:22:02.881Z,2.35
2019-05-22T17:24:34.323Z,3.80
2019-05-22T17:27:04.647Z,2.67
2019-05-22T17:29:34.236Z,3.98
2019-05-22T17:32:05.203Z,2.15
2019-05-22T17:34:36.091Z,4.15
2019-05-22T17:37:17.480Z,2.85
2019-05-22T17:39:49.410Z,1.20
2019-05-22T17:42:25.114Z,5.25
2019-05-22T17:44:55.550Z,1.07
2019-05-22T17:47:26.405Z,1.45
2019-05-22T17:49:56.830Z,3.37
2019-05-22T17:52:27.958Z,3.50
2019-05-22T17:54:58.315Z,1.15
2019-05-22T17:57:30.155Z,3.55
2019-05-22T17:59:59.924Z,0.80
2019-05-22T18:02:31.216Z,1.25
2019-05-22T18:05:01.202Z,2.65
2019-05-22T18:07:31.607Z,6.25
2019-05-22T18:10:01.845Z,0.98
2019-05-22T18:12:31.666Z,2.15
2019-05-22T18:15:02.387Z,3.65
2019-05-22T18:17:31.933Z,4.12
2019-05-22T18:20:01.550Z,5.35
2019-05-22T18:22:31.261Z,1.15
2019-05-22T18:25:01.275Z,1.30
2019-05-22T18:27:31.647Z,1.00
2019-05-22T18:30:01.144Z,2.15
2019-05-22T18:32:33.740Z,1.65
2019-05-22T18:35:03.569Z,2.22
2019-05-22T18:37:34.649Z,0.90
2019-05-22T18:40:07.427Z,2.60
2019-05-22T18:42:37.262Z,3.37
2019-05-22T18:45:07.483Z,1.75
2019-05-22T18:47:37.394Z,6.80
2019-05-22T18:50:07.618Z,0.72
2019-05-22T18:52:41.455Z,1.32
2019-05-22T18:55:09.532Z,1.20
2019-05-22T18:57:47.452Z,1.87
2019-05-22T19:00:21.149Z,2.87
2019-05-22T19:02:51.022Z,1.50
2019-05-22T19:05:23.855Z,2.02
2019-05-22T19:07:53.539Z,7.30
2019-05-22T19:10:23.777Z,2.75
2019-05-22T19:12:53.291Z,4.17
2019-05-22T19:15:23.598Z,4.97
2019-05-22T19:17:53.507Z,0.70
2019-05-22T19:20:24.172Z,4.47
2019-05-22T19:23:00.507Z,2.67
2019-05-22T19:25:25.279Z,4.83
2019-05-22T19:27:54.729Z,0.72
2019-05-22T19:30:25.978Z,5.20
2019-05-22T19:32:55.416Z,2.05
2019-05-22T19:35:24.840Z,2.70
2019-05-22T19:37:56.190Z,1.98
2019-05-22T19:40:25.849Z,2.05
2019-05-22T19:42:55.724Z,5.67
2019-05-22T19:45:25.907Z,4.28
2019-05-22T19:47:56.930Z,2.00
2019-05-22T19:50:27.044Z,3.62
2019-05-22T19:53:19.222Z,3.58
2019-05-22T19:55:47.918Z,2.05
2019-05-22T19:58:21.772Z,3.27
2019-05-22T20:00:49.895Z,1.22
2019-05-22T20:03:21.113Z,4.53
2019-05-22T20:05:50.660Z,1.82
2019-05-22T20:08:40.787Z,1.90
2019-05-22T20:11:10.415Z,5.97
2019-05-22T20:13:40.563Z,1.17
2019-05-22T20:16:10.549Z,1.07
2019-05-22T20:18:39.984Z,3.25
2019-05-22T20:21:10.229Z,2.60
2019-05-22T20:23:40.270Z,4.72
2019-05-22T20:26:09.715Z,2.27
2019-05-22T20:28:39.435Z,1.77
2019-05-22T20:31:09.911Z,3.67
2019-05-22T20:33:39.544Z,1.72
2019-05-22T20:36:10.005Z,4.05
2019-05-22T20:38:39.733Z,1.62
2019-05-22T20:41:09.726Z,0.68
2019-05-22T20:43:40.487Z,1.00
2019-05-22T20:46:11.213Z,1.10
2019-05-22T20:48:41.652Z,5.28
2019-05-22T20:51:13.163Z,1.95
2019-05-22T20:53:54.011Z,1.35
2019-05-22T20:56:20.286Z,1.95
2019-05-22T20:58:58.435Z,2.05
2019-05-22T21:01:28.043Z,2.22
2019-05-22T21:04:01.241Z,1.30
2019-05-22T21:06:35.522Z,2.40
2019-05-22T21:09:06.801Z,3.35
2019-05-22T21:11:36.375Z,2.10
2019-05-22T21:14:06.218Z,2.92
2019-05-22T21:16:35.944Z,1.32
2019-05-22T21:19:06.744Z,3.72
2019-05-22T21:21:36.756Z,4.03
2019-05-22T21:24:11.331Z,2.45
2019-05-22T21:26:39.201Z,1.30
2019-05-22T21:29:09.026Z,1.02
2019-05-22T21:31:38.571Z,5.80
2019-05-22T21:34:08.512Z,5.20
2019-05-22T21:36:38.847Z,5.15
2019-05-22T21:39:12.176Z,4.92
2019-05-22T21:41:42.466Z,1.72
2019-05-22T21:44:12.261Z,2.37
2019-05-22T21:46:42.478Z,1.90
2019-05-22T21:49:12.266Z,2.92
2019-05-22T21:51:41.771Z,2.55
2019-05-22T21:54:13.247Z,1.32
2019-05-22T21:56:44.610Z,2.08
2019-05-22T21:59:16.000Z,7.00
2019-05-22T22:01:47.477Z,4.47
2019-05-22T22:04:19.650Z,2.05
2019-05-22T22:06:50.853Z,1.22
2019-05-22T22:09:20.843Z,4.97
2019-05-22T22:12:03.127Z,4.33
2019-05-22T22:14:33.467Z,2.42
2019-05-22T22:17:03.850Z,1.37
2019-05-22T22:19:34.385Z,4.45
2019-05-22T22:22:09.042Z,2.35
2019-05-22T22:24:38.638Z,2.87
2019-05-22T22:27:11.679Z,4.67
2019-05-22T22:29:41.297Z,2.00
2019-05-22T22:32:12.277Z,1.72
2019-05-22T22:34:50.283Z,2.60
2019-05-22T22:37:21.224Z,8.78
2019-05-22T22:40:01.814Z,1.90
2019-05-22T22:42:36.815Z,8.73
2019-05-22T22:45:08.946Z,3.70
2019-05-22T22:50:09.860Z,4.05
2019-05-22T22:52:40.030Z,2.25
2019-05-22T22:55:11.551Z,5.87
2019-05-22T22:57:41.082Z,3.02
2019-05-22T23:00:13.590Z,3.17
2019-05-22T23:02:43.895Z,6.10
2019-05-22T23:05:13.820Z,1.82
2019-05-22T23:07:43.783Z,4.58
2019-05-22T23:10:16.626Z,8.18
2019-05-22T23:12:46.956Z,3.50
2019-05-22T23:15:18.393Z,2.45
2019-05-22T23:17:49.363Z,1.82
2019-05-22T23:20:17.971Z,1.52
2019-05-22T23:22:46.366Z,1.95
2019-05-22T23:25:19.498Z,2.77
2019-05-22T23:27:51.054Z,8.58
2019-05-22T23:30:39.932Z,6.17
2019-05-22T23:33:10.887Z,15.63
2019-05-22T23:35:41.127Z,3.55
2019-05-22T23:38:10.679Z,2.20
2019-05-22T23:40:40.148Z,4.45
2019-05-22T23:43:11.209Z,4.22
2019-05-22T23:45:41.338Z,2.17
2019-05-22T23:48:13.235Z,1.50
2019-05-22T23:50:44.651Z,4.08
2019-05-22T23:53:19.536Z,2.72
2019-05-22T23:55:50.057Z,3.42
2019-05-22T23:58:22.730Z,2.17
